Time;durP1;ratioP1;P1;durP2;ratioP2;P2;SDS_P1;SDS_P2;PMS_P1;PMS_P2;Temp;Humidity;BMP_temperature;BMP_pressure;BME280_temperature;BME280_humidity;BME280_pressure;Samples;Min_cycle;Max_cycle;Signal;HPM_P1;HPM_P2
2020/12/27 00:00:52;;;;;;;14.90;10.57;;;7.30;99.90;;;;;;4938147;29;20214;-78
2020/12/27 00:03:18;;;;;;;12.48;10.32;;;7.30;99.90;;;;;;4918259;29;20215;-79
2020/12/27 00:05:45;;;;;;;13.80;10.55;;;7.30;99.90;;;;;;4921196;29;20211;-78
2020/12/27 00:08:12;;;;;;;14.80;10.38;;;7.30;99.90;;;;;;4919591;29;20223;-79
2020/12/27 00:10:38;;;;;;;15.48;11.15;;;7.30;99.90;;;;;;4920672;29;20542;-78
2020/12/27 00:13:04;;;;;;;16.85;10.32;;;7.20;99.90;;;;;;4919257;29;20207;-78
2020/12/27 00:15:32;;;;;;;13.90;10.90;;;7.30;99.90;;;;;;4937731;29;20207;-79
2020/12/27 00:17:58;;;;;;;11.90;10.15;;;7.20;99.90;;;;;;4920467;29;20227;-78
2020/12/27 00:20:25;;;;;;;12.68;10.25;;;7.20;99.90;;;;;;4938108;29;20521;-79
2020/12/27 00:22:51;;;;;;;12.73;10.00;;;7.20;99.90;;;;;;4918397;29;20241;-78
2020/12/27 00:25:20;;;;;;;13.80;10.55;;;7.20;99.90;;;;;;4933794;29;20231;-79
2020/12/27 00:27:47;;;;;;;15.55;10.48;;;7.20;99.90;;;;;;4935713;29;20618;-78
2020/12/27 00:30:15;;;;;;;11.70;10.00;;;7.20;99.90;;;;;;4936480;29;20211;-78
2020/12/27 00:32:43;;;;;;;13.27;10.35;;;7.20;99.90;;;;;;4936189;29;20207;-79
2020/12/27 00:35:10;;;;;;;15.02;10.43;;;7.20;99.90;;;;;;4919144;29;20214;-78
2020/12/27 00:37:36;;;;;;;15.10;10.32;;;7.20;99.90;;;;;;4918247;29;20243;-79
2020/12/27 00:40:03;;;;;;;11.75;9.23;;;7.20;99.90;;;;;;4920563;29;20214;-78
2020/12/27 00:42:30;;;;;;;13.68;10.13;;;7.20;99.90;;;;;;4919512;29;20750;-77
2020/12/27 00:44:57;;;;;;;12.13;10.55;;;7.20;99.90;;;;;;4919092;29;20195;-78
2020/12/27 00:47:26;;;;;;;13.98;10.07;;;7.10;99.90;;;;;;4919532;29;20294;-79
2020/12/27 00:49:53;;;;;;;15.75;10.82;;;7.10;99.90;;;;;;4918202;29;20246;-78
2020/12/27 00:52:20;;;;;;;13.80;10.30;;;7.10;99.90;;;;;;4918750;29;20222;-78
2020/12/27 00:54:49;;;;;;;12.90;9.52;;;7.10;99.90;;;;;;4935138;29;20263;-79
2020/12/27 00:57:16;;;;;;;13.25;10.10;;;7.10;99.90;;;;;;4918830;29;20200;-77
2020/12/27 00:59:42;;;;;;;13.27;10.55;;;7.10;99.90;;;;;;4916787;29;20214;-77
2020/12/27 01:02:14;;;;;;;13.70;10.02;;;7.10;99.90;;;;;;4935787;29;20777;-78
2020/12/27 01:04:49;;;;;;;12.45;10.27;;;7.10;99.90;;;;;;4934090;29;20293;-78
2020/12/27 01:07:23;;;;;;;11.93;9.48;;;7.10;99.90;;;;;;4915734;29;20199;-79
2020/12/27 01:10:06;;;;;;;14.52;10.32;;;7.00;99.90;;;;;;4917896;29;20222;-78
2020/12/27 01:12:33;;;;;;;13.32;10.35;;;7.00;99.90;;;;;;4918388;29;20207;-78
2020/12/27 01:15:02;;;;;;;15.27;9.13;;;7.00;99.90;;;;;;4917561;29;20624;-78
2020/12/27 01:18:01;;;;;;;12.95;9.63;;;7.00;99.90;;;;;;4916094;29;20242;-79
2020/12/27 01:20:27;;;;;;;15.68;9.82;;;6.90;99.90;;;;;;4917828;29;20299;-77
2020/12/27 01:22:55;;;;;;;14.25;9.25;;;7.00;99.90;;;;;;4917750;29;20207;-78
2020/12/27 01:25:30;;;;;;;13.48;9.23;;;7.00;99.90;;;;;;4918063;29;20203;-78
2020/12/27 01:27:58;;;;;;;13.55;9.50;;;7.00;99.90;;;;;;4916939;29;20207;-79
2020/12/27 01:30:25;;;;;;;14.73;9.82;;;6.90;99.90;;;;;;4935548;29;20191;-79
2020/12/27 01:32:59;;;;;;;16.42;10.52;;;6.90;99.90;;;;;;4917608;29;20571;-77
2020/12/27 01:35:25;;;;;;;15.90;9.75;;;6.90;99.90;;;;;;4934890;29;20203;-78
2020/12/27 01:37:52;;;;;;;16.92;10.30;;;6.90;99.90;;;;;;4915930;29;20204;-77
2020/12/27 01:40:20;;;;;;;14.38;9.68;;;6.90;99.90;;;;;;4917875;29;20664;-78
2020/12/27 01:42:53;;;;;;;13.68;9.82;;;6.90;99.90;;;;;;4934728;29;20231;-78
2020/12/27 01:45:20;;;;;;;11.68;9.63;;;6.90;99.90;;;;;;4935410;29;20294;-79
2020/12/27 01:48:12;;;;;;;14.35;9.77;;;6.80;99.90;;;;;;4933689;29;20550;-77
2020/12/27 01:50:40;;;;;;;15.95;9.98;;;6.80;99.90;;;;;;4931458;29;20246;-77
2020/12/27 01:53:07;;;;;;;15.07;9.70;;;6.80;99.90;;;;;;4916863;29;20199;-77
2020/12/27 01:55:38;;;;;;;15.50;10.15;;;6.80;99.90;;;;;;4917808;29;20203;-78
2020/12/27 01:58:25;;;;;;;15.48;9.98;;;6.80;99.90;;;;;;4916274;29;20660;-77
2020/12/27 02:01:02;;;;;;;14.65;9.65;;;6.70;99.90;;;;;;4918159;29;20294;-77
2020/12/27 02:03:52;;;;;;;13.55;9.50;;;6.80;99.90;;;;;;4924746;29;20775;-76
2020/12/27 02:06:29;;;;;;;11.40;9.00;;;6.80;99.90;;;;;;4918088;29;20285;-77
2020/12/27 02:09:04;;;;;;;13.40;9.30;;;6.80;99.90;;;;;;4917443;29;20700;-76
2020/12/27 02:11:43;;;;;;;13.10;9.07;;;6.80;99.90;;;;;;4915996;29;20214;-77
2020/12/27 02:14:10;;;;;;;17.38;9.68;;;6.80;99.90;;;;;;4917283;29;20696;-77
2020/12/27 02:16:39;;;;;;;14.57;10.00;;;6.70;99.90;;;;;;4917954;29;20687;-78
2020/12/27 02:19:38;;;;;;;14.40;9.35;;;6.70;99.90;;;;;;4921985;29;20590;-78
2020/12/27 02:22:10;;;;;;;16.05;9.82;;;6.70;99.90;;;;;;4914363;29;20250;-77
2020/12/27 02:24:55;;;;;;;15.23;10.45;;;6.70;99.90;;;;;;4931853;29;20258;-77
2020/12/27 02:27:24;;;;;;;17.38;9.77;;;6.60;99.90;;;;;;4932956;29;20617;-78
2020/12/27 02:29:55;;;;;;;16.08;10.50;;;6.70;99.90;;;;;;4933558;29;20680;-78
2020/12/27 02:32:23;;;;;;;17.50;10.48;;;6.60;99.90;;;;;;4932588;29;20233;-79
2020/12/27 02:34:50;;;;;;;14.77;10.40;;;6.60;99.90;;;;;;4918552;29;20298;-77
2020/12/27 02:37:17;;;;;;;15.57;10.40;;;6.60;99.90;;;;;;4916723;29;20199;-76
2020/12/27 02:40:00;;;;;;;15.75;9.93;;;6.60;99.90;;;;;;4916383;29;20195;-78
2020/12/27 02:42:38;;;;;;;15.90;9.95;;;6.60;99.90;;;;;;4916091;29;20207;-76
2020/12/27 02:45:12;;;;;;;15.90;9.68;;;6.60;99.90;;;;;;4916823;29;20251;-78
2020/12/27 02:48:03;;;;;;;17.88;9.70;;;6.60;99.90;;;;;;4932870;29;20210;-76
2020/12/27 02:50:38;;;;;;;14.63;9.73;;;6.60;99.90;;;;;;4916814;29;20202;-76
2020/12/27 02:53:05;;;;;;;12.35;9.18;;;6.60;99.90;;;;;;4914032;29;20207;-77
2020/12/27 02:55:33;;;;;;;18.73;10.00;;;6.50;99.90;;;;;;4916131;29;20237;-78
2020/12/27 02:58:00;;;;;;;14.95;9.50;;;6.50;99.90;;;;;;4932516;29;20259;-77
2020/12/27 03:00:30;;;;;;;14.52;9.82;;;6.50;99.90;;;;;;4915644;29;20238;-78
2020/12/27 03:03:16;;;;;;;19.88;9.43;;;6.50;99.90;;;;;;4924614;29;20207;-80
2020/12/27 03:05:50;;;;;;;20.85;9.68;;;6.40;99.90;;;;;;4919845;29;20214;-77
2020/12/27 03:08:17;;;;;;;17.50;9.52;;;6.30;99.90;;;;;;4919465;29;20238;-76
2020/12/27 03:11:11;;;;;;;13.43;8.48;;;6.20;99.90;;;;;;4910352;29;20206;-76
2020/12/27 03:13:38;;;;;;;12.98;8.73;;;6.20;99.90;;;;;;4919939;29;20298;-78
2020/12/27 03:16:06;;;;;;;15.70;9.43;;;6.10;99.90;;;;;;4919719;29;20207;-78
2020/12/27 03:18:50;;;;;;;20.10;8.95;;;6.10;99.90;;;;;;4935949;29;20211;-81
2020/12/27 03:21:34;;;;;;;15.77;9.13;;;6.00;99.90;;;;;;4919605;29;20586;-78
2020/12/27 03:24:04;;;;;;;14.82;8.68;;;6.00;99.90;;;;;;4933968;29;20238;-78
2020/12/27 03:26:35;;;;;;;16.00;8.70;;;6.00;99.90;;;;;;4918875;29;20231;-79
2020/12/27 03:29:03;;;;;;;16.65;8.77;;;6.00;99.90;;;;;;4935076;29;20366;-78
2020/12/27 03:31:31;;;;;;;13.55;8.85;;;6.00;99.90;;;;;;4919936;29;20202;-78
2020/12/27 03:34:05;;;;;;;14.10;8.40;;;5.90;99.90;;;;;;4917921;29;20207;-79
2020/12/27 03:36:33;;;;;;;14.40;9.05;;;5.90;99.90;;;;;;4918826;29;20585;-79
2020/12/27 03:39:11;;;;;;;11.38;8.88;;;5.90;99.90;;;;;;4918760;29;20214;-77
2020/12/27 03:41:38;;;;;;;12.18;7.88;;;5.90;99.90;;;;;;4936457;29;20199;-79
2020/12/27 03:44:23;;;;;;;11.00;7.78;;;5.90;99.90;;;;;;4935124;29;20203;-78
2020/12/27 03:47:09;;;;;;;9.88;6.07;;;5.90;99.90;;;;;;4936956;29;20245;-82
2020/12/27 03:49:44;;;;;;;9.02;6.72;;;5.90;99.90;;;;;;4919635;29;20229;-77
2020/12/27 03:52:17;;;;;;;12.95;7.80;;;5.90;99.90;;;;;;4918336;29;20584;-77
2020/12/27 03:55:09;;;;;;;11.75;7.15;;;5.90;99.90;;;;;;4911447;29;20207;-78
2020/12/27 03:57:50;;;;;;;11.15;7.03;;;5.90;99.90;;;;;;4917504;29;20249;-80
2020/12/27 04:00:29;;;;;;;13.35;7.18;;;5.80;99.90;;;;;;4919064;29;20551;-78
2020/12/27 04:03:02;;;;;;;8.93;6.18;;;5.90;99.90;;;;;;4917951;29;20243;-77
2020/12/27 04:05:36;;;;;;;7.05;5.32;;;5.90;99.90;;;;;;4918393;29;20246;-78
2020/12/27 04:08:02;;;;;;;10.90;5.72;;;5.80;99.90;;;;;;4916944;29;20556;-79
2020/12/27 04:10:29;;;;;;;9.07;5.82;;;5.90;99.90;;;;;;4918716;29;20243;-78
2020/12/27 04:12:56;;;;;;;9.07;5.57;;;5.80;99.90;;;;;;4918263;29;20215;-79
2020/12/27 04:15:23;;;;;;;9.40;5.75;;;5.90;99.90;;;;;;4935534;29;20333;-79
2020/12/27 04:18:00;;;;;;;9.60;6.75;;;5.80;99.90;;;;;;4917948;29;20290;-77
2020/12/27 04:20:41;;;;;;;9.38;5.75;;;5.80;99.90;;;;;;4918161;29;20203;-77
2020/12/27 04:23:10;;;;;;;8.15;5.53;;;5.80;99.90;;;;;;4918053;29;20211;-78
2020/12/27 04:25:36;;;;;;;8.23;4.97;;;5.80;99.90;;;;;;4935535;29;20191;-78
2020/12/27 04:28:03;;;;;;;7.38;5.57;;;5.80;99.90;;;;;;4917932;29;20253;-78
2020/12/27 04:30:31;;;;;;;8.32;5.85;;;5.80;99.90;;;;;;4918310;29;20306;-78
2020/12/27 04:33:12;;;;;;;9.63;6.25;;;5.90;99.90;;;;;;4917441;29;20217;-77
2020/12/27 04:35:56;;;;;;;7.75;5.25;;;5.90;99.90;;;;;;4918541;29;20672;-77
2020/12/27 04:38:22;;;;;;;9.35;6.13;;;5.90;99.90;;;;;;4917926;29;20213;-78
2020/12/27 04:40:50;;;;;;;7.82;5.38;;;5.90;99.90;;;;;;4918339;29;20207;-79
2020/12/27 04:43:20;;;;;;;9.20;5.80;;;5.90;99.90;;;;;;4933158;29;20203;-78
2020/12/27 04:45:57;;;;;;;7.88;5.82;;;5.90;99.90;;;;;;4916604;29;20206;-78
2020/12/27 04:48:31;;;;;;;7.93;5.88;;;5.90;99.90;;;;;;4917378;29;20548;-77
2020/12/27 04:51:22;;;;;;;7.53;5.65;;;5.90;99.90;;;;;;4935032;29;20302;-77
2020/12/27 04:53:57;;;;;;;8.77;4.80;;;5.90;99.90;;;;;;4914435;29;20242;-78
2020/12/27 04:56:41;;;;;;;10.00;5.80;;;5.90;99.90;;;;;;4915158;29;20290;-79
2020/12/27 04:59:16;;;;;;;11.68;5.43;;;6.00;99.90;;;;;;4915826;29;20202;-78
2020/12/27 05:01:44;;;;;;;11.30;4.85;;;6.00;99.90;;;;;;4914939;29;20265;-79
2020/12/27 05:04:24;;;;;;;7.05;5.25;;;6.00;99.90;;;;;;4916421;29;20209;-77
2020/12/27 05:07:01;;;;;;;8.25;5.43;;;6.00;99.90;;;;;;4917374;29;20763;-78
2020/12/27 05:09:51;;;;;;;8.93;5.10;;;6.00;99.90;;;;;;4934836;29;20230;-77
2020/12/27 05:12:18;;;;;;;10.20;5.28;;;6.00;99.90;;;;;;4929479;29;20203;-78
2020/12/27 05:14:46;;;;;;;9.18;5.18;;;6.10;99.90;;;;;;4917791;29;20208;-78
2020/12/27 05:17:17;;;;;;;6.03;4.78;;;6.10;99.90;;;;;;4930481;29;20628;-77
2020/12/27 05:19:54;;;;;;;6.78;5.07;;;6.10;99.90;;;;;;4916902;29;20242;-78
2020/12/27 05:22:23;;;;;;;10.07;5.28;;;6.10;99.90;;;;;;4916534;29;20235;-77
2020/12/27 05:25:11;;;;;;;6.53;4.88;;;6.10;99.90;;;;;;4916082;29;20207;-77
2020/12/27 05:28:05;;;;;;;5.90;4.50;;;6.10;99.90;;;;;;4916529;29;20215;-77
2020/12/27 05:30:56;;;;;;;7.68;4.75;;;6.10;99.90;;;;;;4932982;29;20679;-79
2020/12/27 05:33:42;;;;;;;8.02;4.57;;;6.10;99.90;;;;;;4933372;29;20339;-78
2020/12/27 05:36:27;;;;;;;8.20;4.82;;;6.10;99.90;;;;;;4934705;29;20683;-78
2020/12/27 05:39:06;;;;;;;12.77;4.50;;;6.10;99.90;;;;;;4917082;29;20203;-77
2020/12/27 05:41:44;;;;;;;4.00;3.47;;;6.10;99.90;;;;;;4930340;29;20207;-78
2020/12/27 05:44:19;;;;;;;6.18;3.80;;;6.20;99.90;;;;;;4915779;29;20207;-77
2020/12/27 05:46:46;;;;;;;5.50;3.95;;;6.20;99.90;;;;;;4914852;29;20199;-77
2020/12/27 05:49:20;;;;;;;5.20;4.00;;;6.20;99.90;;;;;;4915583;29;20211;-77
2020/12/27 05:51:54;;;;;;;4.40;3.25;;;6.20;99.90;;;;;;4915636;29;20610;-77
2020/12/27 05:54:30;;;;;;;9.02;3.50;;;6.20;99.90;;;;;;4917061;29;20199;-77
2020/12/27 05:57:00;;;;;;;8.05;3.38;;;6.20;99.90;;;;;;4931186;29;20620;-79
2020/12/27 05:59:31;;;;;;;5.47;3.60;;;6.20;99.90;;;;;;4916335;29;20294;-78
2020/12/27 06:02:39;;;;;;;5.00;3.50;;;6.20;99.90;;;;;;4931250;29;20285;-78
2020/12/27 06:05:11;;;;;;;3.88;3.10;;;6.20;99.90;;;;;;4931732;29;20230;-78
2020/12/27 06:07:40;;;;;;;4.45;3.05;;;6.20;99.90;;;;;;4916209;29;20211;-78
2020/12/27 06:10:14;;;;;;;6.35;3.00;;;6.20;99.90;;;;;;4916627;29;20310;-77
2020/12/27 06:13:41;;;;;;;4.25;3.10;;;6.20;99.90;;;;;;4912305;29;20215;-78
2020/12/27 06:16:52;;;;;;;3.75;2.90;;;6.20;99.90;;;;;;4841776;29;20669;-78
2020/12/27 06:19:59;;;;;;;3.45;2.30;;;6.20;99.90;;;;;;4911853;29;20229;-78
2020/12/27 06:22:33;;;;;;;5.68;2.78;;;6.20;99.90;;;;;;4915749;29;20621;-78
2020/12/27 06:25:20;;;;;;;3.85;2.53;;;6.20;99.90;;;;;;4933325;29;20203;-78
2020/12/27 06:27:49;;;;;;;2.75;2.00;;;6.20;99.90;;;;;;4916010;29;20218;-78
2020/12/27 06:30:23;;;;;;;3.78;2.25;;;6.20;99.90;;;;;;4916814;29;20227;-79
2020/12/27 06:33:16;;;;;;;3.13;1.90;;;6.20;99.90;;;;;;4931116;29;20289;-76
2020/12/27 06:35:46;;;;;;;3.38;1.80;;;6.20;99.90;;;;;;4912842;29;20210;-78
2020/12/27 06:38:18;;;;;;;2.30;1.83;;;6.20;99.90;;;;;;4932589;29;20660;-77
2020/12/27 06:40:58;;;;;;;1.88;1.50;;;6.30;99.90;;;;;;4912550;29;20294;-76
2020/12/27 06:43:45;;;;;;;2.58;1.77;;;6.30;99.90;;;;;;4931351;29;20222;-76
2020/12/27 06:46:29;;;;;;;1.92;1.50;;;6.30;99.90;;;;;;4908894;29;20203;-77
2020/12/27 06:49:21;;;;;;;1.75;1.55;;;6.30;99.90;;;;;;4918371;29;20227;-76
2020/12/27 06:52:15;;;;;;;3.50;1.42;;;6.30;99.90;;;;;;4927219;29;20206;-76
2020/12/27 06:55:04;;;;;;;2.50;1.55;;;6.30;99.90;;;;;;4923185;29;20249;-76
2020/12/27 06:57:49;;;;;;;1.77;1.33;;;6.30;99.90;;;;;;4925132;29;20267;-77
2020/12/27 07:00:33;;;;;;;4.80;1.40;;;6.30;99.90;;;;;;4906931;29;20254;-77
2020/12/27 07:03:26;;;;;;;1.73;1.15;;;6.30;99.90;;;;;;4927159;29;20327;-77
2020/12/27 07:05:53;;;;;;;2.83;1.13;;;6.40;99.90;;;;;;4913170;29;20214;-76
2020/12/27 07:08:42;;;;;;;2.45;1.30;;;6.40;99.90;;;;;;4928651;29;20207;-76
2020/12/27 07:11:09;;;;;;;3.30;1.10;;;6.40;99.90;;;;;;4929447;29;20195;-76
2020/12/27 07:13:41;;;;;;;1.38;1.20;;;6.40;99.90;;;;;;4915522;29;20731;-77
2020/12/27 07:16:11;;;;;;;4.20;1.27;;;6.40;99.90;;;;;;4928792;29;20199;-76
2020/12/27 07:18:38;;;;;;;5.80;1.00;;;6.50;99.90;;;;;;4927084;29;20243;-77
2020/12/27 07:21:11;;;;;;;1.40;0.95;;;6.50;99.90;;;;;;4928582;29;20206;-77
2020/12/27 07:23:43;;;;;;;1.60;0.90;;;6.50;99.90;;;;;;4930020;29;20207;-76
2020/12/27 07:26:12;;;;;;;2.13;1.10;;;6.50;99.90;;;;;;4929531;29;20202;-77
2020/12/27 07:28:38;;;;;;;1.58;0.95;;;6.50;99.90;;;;;;4912767;29;20723;-77
2020/12/27 07:31:06;;;;;;;2.28;0.98;;;6.50;99.90;;;;;;4930388;29;20621;-78
2020/12/27 07:33:34;;;;;;;4.28;1.08;;;6.60;99.90;;;;;;4927704;29;20251;-77
2020/12/27 07:36:02;;;;;;;2.35;1.00;;;6.60;99.90;;;;;;4928741;29;20211;-77
2020/12/27 07:38:59;;;;;;;0.90;0.80;;;6.60;99.90;;;;;;4928962;29;20689;-77
2020/12/27 07:41:28;;;;;;;1.13;0.95;;;6.60;99.90;;;;;;4926503;29;20191;-77
2020/12/27 07:43:54;;;;;;;0.82;0.82;;;6.60;99.90;;;;;;4923838;29;20665;-76
2020/12/27 07:46:22;;;;;;;0.70;0.70;;;6.60;99.90;;;;;;4924349;29;20212;-77
2020/12/27 07:48:49;;;;;;;1.75;1.45;;;6.70;99.90;;;;;;4935719;29;20206;-77
2020/12/27 07:51:17;;;;;;;1.40;0.95;;;6.70;99.90;;;;;;4928698;29;20211;-77
2020/12/27 07:53:48;;;;;;;1.40;0.93;;;6.70;99.90;;;;;;4928191;29;20673;-77
2020/12/27 07:56:15;;;;;;;2.00;1.13;;;6.70;99.90;;;;;;4936281;29;20203;-78
2020/12/27 07:58:50;;;;;;;2.83;1.13;;;6.70;99.90;;;;;;4934766;29;20201;-77
2020/12/27 08:01:23;;;;;;;2.15;1.20;;;6.70;99.90;;;;;;4934410;29;20585;-77
2020/12/27 08:03:55;;;;;;;1.60;0.98;;;6.70;99.90;;;;;;4935102;29;20194;-76
2020/12/27 08:06:23;;;;;;;1.10;0.93;;;6.80;99.90;;;;;;4932758;29;20218;-76
2020/12/27 08:08:58;;;;;;;0.95;0.90;;;6.80;99.90;;;;;;4933889;29;20211;-76
2020/12/27 08:11:27;;;;;;;1.02;0.93;;;6.80;99.90;;;;;;4929763;29;20203;-77
2020/12/27 08:13:58;;;;;;;1.33;1.00;;;6.80;99.90;;;;;;4931151;29;20222;-76
2020/12/27 08:16:26;;;;;;;1.40;1.30;;;6.80;99.90;;;;;;4931255;29;20566;-76
2020/12/27 08:19:04;;;;;;;1.65;1.00;;;6.80;99.90;;;;;;4930468;29;20298;-77
2020/12/27 08:21:30;;;;;;;1.17;1.00;;;6.90;99.90;;;;;;4932569;29;20195;-78
2020/12/27 08:23:58;;;;;;;3.03;1.08;;;6.90;99.90;;;;;;4930755;29;20203;-77
2020/12/27 08:26:25;;;;;;;1.50;0.80;;;6.90;99.90;;;;;;4933172;29;20676;-78
2020/12/27 08:28:52;;;;;;;3.08;1.00;;;6.90;99.90;;;;;;4934075;29;20231;-79
2020/12/27 08:31:30;;;;;;;2.38;1.00;;;6.90;99.90;;;;;;4934389;29;20230;-79
2020/12/27 08:34:12;;;;;;;1.08;0.80;;;7.00;99.90;;;;;;4932973;29;20207;-78
2020/12/27 08:36:40;;;;;;;2.95;0.95;;;6.90;99.90;;;;;;4931600;29;20223;-79
2020/12/27 08:39:14;;;;;;;2.78;1.13;;;7.00;99.90;;;;;;4935746;29;20243;-80
2020/12/27 08:41:46;;;;;;;4.40;0.90;;;7.00;99.90;;;;;;4934947;29;20978;-78
2020/12/27 08:44:38;;;;;;;1.95;0.90;;;7.00;99.90;;;;;;4935829;29;20199;-81
2020/12/27 08:47:16;;;;;;;1.10;0.90;;;7.10;99.90;;;;;;4932926;29;20210;-80
2020/12/27 08:49:48;;;;;;;0.98;0.88;;;7.10;99.90;;;;;;4933948;29;20234;-79
2020/12/27 08:52:20;;;;;;;0.90;0.90;;;7.10;99.90;;;;;;4935181;29;20211;-80
2020/12/27 08:54:51;;;;;;;0.98;0.82;;;7.10;99.90;;;;;;4934785;29;20206;-80
2020/12/27 09:00:06;;;;;;;1.35;0.90;;;7.10;99.90;;;;;;5171684;23;20243;-77
2020/12/27 09:02:34;;;;;;;1.38;0.70;;;7.20;99.90;;;;;;4936768;29;20214;-75
2020/12/27 09:05:08;;;;;;;3.13;0.90;;;7.20;99.90;;;;;;4953586;28;20285;-77
2020/12/27 09:34:12;;;;;;;2.00;0.90;;;7.00;99.90;;;;;;5089567;27;20590;-77
2020/12/27 09:36:39;;;;;;;1.15;0.90;;;7.60;99.90;;;;;;5085266;28;20202;-76
2020/12/27 09:39:06;;;;;;;0.90;0.80;;;7.50;99.90;;;;;;5098759;28;20545;-76
2020/12/27 09:41:37;;;;;;;0.93;0.93;;;7.40;99.90;;;;;;5085117;28;20289;-76
2020/12/27 09:44:04;;;;;;;0.80;0.80;;;7.40;99.90;;;;;;5095361;28;20596;-77
2020/12/27 09:46:42;;;;;;;1.05;0.88;;;7.40;99.90;;;;;;5096593;28;20656;-77
2020/12/27 09:49:17;;;;;;;1.50;0.80;;;7.40;99.90;;;;;;5083416;27;20937;-77
2020/12/27 09:51:43;;;;;;;1.10;0.70;;;7.40;99.90;;;;;;5085084;27;20197;-77
2020/12/27 09:54:10;;;;;;;1.02;0.90;;;7.40;99.90;;;;;;5085497;28;20542;-76
2020/12/27 09:56:41;;;;;;;0.80;0.70;;;7.40;99.90;;;;;;5102356;27;20201;-77
2020/12/27 09:59:07;;;;;;;0.90;0.70;;;7.40;99.90;;;;;;5101716;28;20215;-78
2020/12/27 10:01:34;;;;;;;1.50;0.82;;;7.50;99.90;;;;;;5090031;28;20197;-76
2020/12/27 10:04:00;;;;;;;3.92;0.80;;;7.50;99.90;;;;;;5099608;28;20232;-76
2020/12/27 10:06:27;;;;;;;0.70;0.70;;;7.50;99.90;;;;;;5081934;28;20677;-77
2020/12/27 10:08:53;;;;;;;1.15;0.80;;;7.50;99.90;;;;;;5090242;28;20748;-77
2020/12/27 10:11:19;;;;;;;0.80;0.80;;;7.50;99.90;;;;;;5091680;27;20212;-76
2020/12/27 10:13:46;;;;;;;1.42;1.10;;;7.50;99.90;;;;;;5087636;28;20226;-76
2020/12/27 10:16:12;;;;;;;0.82;0.70;;;7.50;99.90;;;;;;5093669;28;20221;-76
2020/12/27 10:18:38;;;;;;;1.17;0.90;;;7.60;99.90;;;;;;5091777;28;20556;-76
2020/12/27 10:21:07;;;;;;;1.23;0.98;;;7.60;99.90;;;;;;5091865;27;20720;-76
2020/12/27 10:23:35;;;;;;;0.70;0.60;;;7.60;99.90;;;;;;5093413;27;20217;-76
2020/12/27 10:26:01;;;;;;;2.10;0.77;;;7.60;99.90;;;;;;5103315;28;20197;-76
2020/12/27 10:28:28;;;;;;;1.63;0.75;;;7.60;99.90;;;;;;5101665;28;20930;-76
2020/12/27 10:30:54;;;;;;;2.25;0.80;;;7.60;99.90;;;;;;5087997;27;20198;-77
2020/12/27 10:33:20;;;;;;;0.57;0.57;;;7.60;99.90;;;;;;5080485;27;20306;-77
2020/12/27 10:35:47;;;;;;;1.00;0.90;;;7.60;99.90;;;;;;5073171;27;20226;-76
2020/12/27 10:38:13;;;;;;;1.63;0.90;;;7.60;99.90;;;;;;5078907;28;20664;-75
2020/12/27 10:40:40;;;;;;;1.77;0.80;;;7.60;99.90;;;;;;5089333;28;20566;-76
2020/12/27 10:43:06;;;;;;;1.23;0.68;;;7.60;99.90;;;;;;5087160;28;20214;-77
2020/12/27 10:45:33;;;;;;;0.73;0.65;;;7.60;99.90;;;;;;5070425;27;20218;-76
2020/12/27 10:47:59;;;;;;;3.25;0.82;;;7.50;99.90;;;;;;5078910;28;20281;-76
2020/12/27 10:50:25;;;;;;;0.70;0.65;;;7.50;99.90;;;;;;5089141;28;20197;-76
2020/12/27 10:52:51;;;;;;;1.08;0.70;;;7.50;99.90;;;;;;5069725;28;20274;-75
2020/12/27 10:55:18;;;;;;;0.80;0.70;;;7.40;99.90;;;;;;5085124;27;20269;-76
2020/12/27 10:57:45;;;;;;;0.88;0.82;;;7.40;99.90;;;;;;5073125;27;20199;-76
2020/12/27 11:00:11;;;;;;;1.95;0.57;;;7.30;99.90;;;;;;5082703;27;20198;-77
2020/12/27 11:02:37;;;;;;;1.30;0.95;;;7.30;99.90;;;;;;5085704;28;20210;-75
2020/12/27 11:05:04;;;;;;;1.98;1.10;;;7.20;99.90;;;;;;5081913;27;20221;-76
2020/12/27 11:07:30;;;;;;;1.42;0.75;;;7.20;99.90;;;;;;5082057;28;20556;-76
2020/12/27 11:09:56;;;;;;;0.85;0.80;;;7.20;99.90;;;;;;5081569;27;20237;-76
2020/12/27 11:12:25;;;;;;;2.83;1.02;;;7.20;99.90;;;;;;5070446;28;20203;-75
2020/12/27 11:14:52;;;;;;;2.22;0.85;;;7.20;99.90;;;;;;5076362;28;20281;-75
2020/12/27 11:17:23;;;;;;;3.38;0.80;;;7.20;99.90;;;;;;5089197;28;20537;-76
2020/12/27 11:19:50;;;;;;;2.30;0.70;;;7.10;99.90;;;;;;5068921;28;20230;-75
2020/12/27 11:22:16;;;;;;;4.72;1.02;;;7.10;99.90;;;;;;5083099;28;20215;-75
2020/12/27 11:24:42;;;;;;;3.58;1.10;;;7.10;99.90;;;;;;5075799;28;20218;-76
2020/12/27 11:27:09;;;;;;;4.63;1.27;;;7.10;99.90;;;;;;5079023;28;20197;-76
2020/12/27 11:29:35;;;;;;;2.05;1.15;;;7.10;99.90;;;;;;5071720;28;20722;-76
2020/12/27 11:32:05;;;;;;;2.47;1.00;;;7.10;99.90;;;;;;5070985;28;20203;-76
2020/12/27 11:34:31;;;;;;;3.20;1.20;;;7.10;99.90;;;;;;5083844;28;20665;-76
2020/12/27 11:36:58;;;;;;;2.20;1.15;;;7.00;99.90;;;;;;5068469;27;20646;-76
2020/12/27 11:39:24;;;;;;;1.98;1.17;;;7.10;99.90;;;;;;5087672;28;20230;-76
2020/12/27 11:41:53;;;;;;;4.50;1.52;;;7.00;99.90;;;;;;5086927;28;20220;-76
2020/12/27 11:44:19;;;;;;;3.65;1.00;;;7.00;99.90;;;;;;5074212;28;20283;-76
2020/12/27 11:46:45;;;;;;;3.25;1.38;;;7.00;99.90;;;;;;5080023;28;20289;-77
2020/12/27 11:49:13;;;;;;;3.08;1.20;;;7.00;99.90;;;;;;5067677;28;20207;-76
2020/12/27 11:51:39;;;;;;;0.88;0.85;;;7.00;99.90;;;;;;5072310;28;20209;-76
2020/12/27 11:54:05;;;;;;;2.78;1.00;;;7.00;99.90;;;;;;5079484;28;20202;-77
2020/12/27 11:56:32;;;;;;;2.95;1.00;;;7.00;99.90;;;;;;5067494;27;20214;-77
2020/12/27 11:59:01;;;;;;;5.07;1.10;;;6.90;99.90;;;;;;5069198;28;20248;-76
2020/12/27 12:01:27;;;;;;;2.35;0.80;;;6.90;99.90;;;;;;5069236;28;20214;-76
2020/12/27 12:03:53;;;;;;;5.88;1.25;;;6.90;99.90;;;;;;5067833;28;20276;-76
2020/12/27 12:06:23;;;;;;;3.60;0.90;;;6.80;99.90;;;;;;5077274;27;20689;-78
2020/12/27 12:08:49;;;;;;;3.08;0.90;;;6.80;99.90;;;;;;5069713;28;20206;-76
2020/12/27 12:11:16;;;;;;;2.92;1.08;;;6.70;99.90;;;;;;5085243;28;20190;-77
2020/12/27 12:13:42;;;;;;;1.50;0.90;;;6.70;99.90;;;;;;5082728;28;20194;-77
2020/12/27 12:16:08;;;;;;;3.40;1.70;;;6.70;99.90;;;;;;5070088;27;20666;-76
2020/12/27 12:18:35;;;;;;;1.48;0.90;;;6.80;99.90;;;;;;5072713;27;20240;-76
2020/12/27 12:21:01;;;;;;;2.05;1.10;;;6.80;99.90;;;;;;5076374;27;20369;-77
2020/12/27 12:23:28;;;;;;;1.48;0.80;;;6.80;99.90;;;;;;5066269;27;20210;-79
2020/12/27 12:25:54;;;;;;;3.05;1.15;;;6.80;99.90;;;;;;5069953;28;20203;-77
2020/12/27 12:28:21;;;;;;;2.20;1.20;;;6.80;99.90;;;;;;5069405;28;20334;-76
2020/12/27 12:30:47;;;;;;;2.60;1.13;;;6.90;99.90;;;;;;5085341;28;20232;-78
2020/12/27 12:33:13;;;;;;;1.63;1.08;;;6.90;99.90;;;;;;5072351;28;20662;-77
2020/12/27 12:35:41;;;;;;;3.03;1.10;;;6.90;99.90;;;;;;5072854;28;20245;-77
2020/12/27 12:38:07;;;;;;;3.28;1.20;;;6.90;99.90;;;;;;5070110;28;20230;-78
2020/12/27 12:40:34;;;;;;;5.95;1.40;;;6.90;99.90;;;;;;5065806;27;20575;-77
2020/12/27 12:43:01;;;;;;;2.15;0.98;;;6.90;99.90;;;;;;5074061;28;20742;-76
2020/12/27 12:45:27;;;;;;;2.17;0.90;;;6.90;99.90;;;;;;5067107;27;20646;-76
2020/12/27 12:47:53;;;;;;;1.38;0.93;;;6.90;99.90;;;;;;5072950;27;20195;-76
2020/12/27 12:50:19;;;;;;;3.88;0.80;;;6.90;99.90;;;;;;5067336;28;20229;-76
2020/12/27 12:52:46;;;;;;;4.03;0.80;;;6.90;99.90;;;;;;5084285;27;20250;-76
2020/12/27 12:55:12;;;;;;;1.80;1.20;;;6.90;99.90;;;;;;5087244;28;20201;-76
2020/12/27 12:57:39;;;;;;;2.83;0.60;;;6.90;99.90;;;;;;5077777;27;20777;-77
2020/12/27 13:00:06;;;;;;;2.35;0.60;;;6.90;99.90;;;;;;5068397;28;20270;-76
2020/12/27 13:02:32;;;;;;;4.07;0.90;;;6.90;99.90;;;;;;5065894;28;20235;-76
2020/12/27 13:04:58;;;;;;;2.53;0.80;;;6.90;99.90;;;;;;5084369;27;20195;-77
2020/12/27 13:07:24;;;;;;;5.13;1.20;;;6.90;99.90;;;;;;5081665;28;20229;-75
2020/12/27 13:09:51;;;;;;;5.13;0.85;;;6.90;99.90;;;;;;5080843;27;20219;-75
2020/12/27 13:12:17;;;;;;;4.28;0.85;;;6.80;99.90;;;;;;5083551;28;20682;-76
2020/12/27 13:14:44;;;;;;;3.95;1.20;;;6.80;99.90;;;;;;5075161;27;20199;-76
2020/12/27 13:17:10;;;;;;;3.88;1.30;;;6.80;99.90;;;;;;5077689;27;20202;-76
2020/12/27 13:19:37;;;;;;;4.47;0.90;;;6.90;99.90;;;;;;5073014;28;20222;-76
2020/12/27 13:22:03;;;;;;;4.85;1.02;;;6.80;99.90;;;;;;5067682;28;20309;-75
2020/12/27 13:24:32;;;;;;;4.88;1.10;;;6.80;99.90;;;;;;5086972;28;20198;-76
2020/12/27 13:26:59;;;;;;;3.42;1.08;;;6.80;99.90;;;;;;5078756;28;20535;-77
2020/12/27 13:29:25;;;;;;;5.10;1.10;;;6.80;99.90;;;;;;5070974;28;20207;-77
2020/12/27 13:31:53;;;;;;;7.60;0.90;;;6.80;99.90;;;;;;5069722;28;20614;-77
2020/12/27 13:34:19;;;;;;;9.40;1.08;;;6.80;99.90;;;;;;5076928;28;20800;-76
2020/12/27 13:36:45;;;;;;;4.10;0.90;;;6.80;99.90;;;;;;5068609;27;20214;-77
2020/12/27 13:39:12;;;;;;;4.82;1.17;;;6.80;99.90;;;;;;5086685;28;20229;-75
2020/12/27 13:41:38;;;;;;;6.80;2.28;;;6.80;99.90;;;;;;5068650;28;20211;-75
2020/12/27 13:44:05;;;;;;;8.27;1.10;;;6.80;99.90;;;;;;5066313;28;20221;-77
2020/12/27 13:46:35;;;;;;;2.92;1.30;;;6.80;99.90;;;;;;5077297;27;20280;-77